Time;durP1;ratioP1;P1;durP2;ratioP2;P2;SDS_P1;SDS_P2;PMS_P1;PMS_P2;Temp;Humidity;BMP_temperature;BMP_pressure;BME280_temperature;BME280_humidity;BME280_pressure;Samples;Min_cycle;Max_cycle;Signal;HPM_P1;HPM_P2
2023/12/26 17:17:02;;;;;;;16.80;5.35;;;11.60;99.90;;;;;;7441274;19;20376;-78
2023/12/26 17:19:33;;;;;;;12.27;4.30;;;11.90;99.90;;;;;;7424457;19;19999;-78
2023/12/26 17:22:02;;;;;;;11.00;3.95;;;12.40;99.90;;;;;;7416901;19;20006;-75
2023/12/26 17:24:31;;;;;;;13.63;4.10;;;12.80;99.90;;;;;;7418871;19;20011;-75
2023/12/26 17:27:00;;;;;;;10.15;4.20;;;13.30;99.90;;;;;;7418057;19;20011;-75
2023/12/26 17:30:01;;;;;;;12.85;4.78;;;13.60;99.90;;;;;;7421212;19;20003;-79
2023/12/26 17:32:33;;;;;;;9.43;3.58;;;13.80;99.90;;;;;;7418784;19;20380;-75
2023/12/26 17:35:02;;;;;;;6.65;3.67;;;14.00;99.90;;;;;;7418585;19;20262;-77
2023/12/26 17:37:32;;;;;;;14.10;4.82;;;14.10;99.90;;;;;;7440067;19;20020;-76
2023/12/26 17:40:04;;;;;;;12.48;3.53;;;14.30;99.90;;;;;;7420284;19;20015;-80
2023/12/26 17:42:38;;;;;;;8.85;3.05;;;14.30;99.90;;;;;;7422803;19;20012;-79
2023/12/26 17:51:49;;;;;;;13.17;4.20;;;14.50;99.90;;;;;;7418415;19;20045;-77
2023/12/26 17:54:24;;;;;;;;;;;14.50;99.90;;;;;;7416741;19;20053;-78
2023/12/26 17:56:56;;;;;;;8.82;4.25;;;14.50;99.90;;;;;;7416870;19;19911;-79
2023/12/26 17:59:27;;;;;;;6.38;3.65;;;14.50;99.90;;;;;;7416857;19;20035;-79
2023/12/26 18:01:57;;;;;;;16.52;4.38;;;14.50;99.90;;;;;;7436140;19;20010;-78
2023/12/26 18:04:29;;;;;;;9.07;4.33;;;14.50;99.90;;;;;;7417272;19;20064;-79
2023/12/26 18:07:11;;;;;;;9.20;4.10;;;14.60;99.90;;;;;;7418389;19;20039;-79
2023/12/26 18:09:40;;;;;;;7.95;3.78;;;14.50;99.90;;;;;;7428490;19;20013;-78
2023/12/26 18:12:13;;;;;;;11.77;4.20;;;14.60;99.90;;;;;;7425604;19;20058;-78
2023/12/26 18:14:42;;;;;;;10.90;4.13;;;14.60;99.90;;;;;;7427951;19;20021;-79
2023/12/26 18:17:10;;;;;;;16.33;5.00;;;14.60;99.90;;;;;;7425299;19;20382;-79
2023/12/26 18:19:39;;;;;;;11.23;4.65;;;14.60;99.90;;;;;;7442053;19;20014;-79
2023/12/26 18:22:15;;;;;;;11.82;4.00;;;14.60;99.90;;;;;;7421075;19;20017;-79
2023/12/26 18:24:44;;;;;;;9.57;3.90;;;14.60;99.90;;;;;;7419795;19;20030;-78
2023/12/26 18:27:15;;;;;;;12.77;5.00;;;14.60;99.90;;;;;;7401746;19;20006;-78
2023/12/26 18:29:43;;;;;;;19.35;4.80;;;14.60;99.90;;;;;;7387504;19;20006;-76
2023/12/26 18:32:12;;;;;;;14.45;4.50;;;14.70;99.90;;;;;;7386822;19;20006;-76
2023/12/26 18:34:44;;;;;;;9.85;5.10;;;14.50;99.90;;;;;;7411456;19;20003;-75
2023/12/26 18:37:15;;;;;;;10.38;4.75;;;14.60;99.90;;;;;;7387747;19;20389;-76
2023/12/26 18:39:44;;;;;;;;;;;14.60;99.90;;;;;;7389104;19;20346;-76
2023/12/26 18:42:13;;;;;;;11.13;4.78;;;14.60;99.90;;;;;;7386526;19;19922;-76
2023/12/26 18:44:42;;;;;;;8.27;4.38;;;14.60;99.90;;;;;;7388751;19;20322;-77
2023/12/26 18:47:14;;;;;;;10.18;3.97;;;14.60;99.90;;;;;;7389285;19;20007;-76
2023/12/26 18:52:40;;;;;;;10.98;3.92;;;14.50;99.90;;;;;;7394209;19;20023;-78
2023/12/26 18:55:19;;;;;;;16.13;4.13;;;14.30;99.90;;;;;;7392782;19;20020;-78
2023/12/26 18:57:48;;;;;;;18.77;4.47;;;14.40;99.90;;;;;;7388591;19;20006;-77
2023/12/26 19:07:03;;;;;;;11.55;4.35;;;14.50;99.90;;;;;;7413018;19;20014;-78
2023/12/26 19:09:37;;;;;;;8.30;4.68;;;14.50;99.90;;;;;;7390379;19;20022;-78
2023/12/26 19:12:08;;;;;;;10.50;4.30;;;14.50;99.90;;;;;;7387225;19;20341;-79
2023/12/26 19:14:39;;;;;;;;;;;14.50;99.90;;;;;;7389795;19;20015;-80
2023/12/26 19:17:11;;;;;;;10.43;4.35;;;14.50;99.90;;;;;;7417540;19;19907;-80
2023/12/26 19:19:41;;;;;;;14.18;4.25;;;14.50;99.90;;;;;;7387088;19;20026;-77
2023/12/26 19:22:10;;;;;;;16.02;4.15;;;14.60;99.90;;;;;;7386257;19;20248;-76
2023/12/26 19:24:46;;;;;;;13.38;5.10;;;14.50;99.90;;;;;;7387507;19;20400;-76
2023/12/26 19:30:50;;;;;;;16.95;4.85;;;14.50;99.90;;;;;;7384216;19;20030;-77
2023/12/26 19:36:33;;;;;;;12.93;5.10;;;14.50;99.90;;;;;;7387873;19;20308;-78
2023/12/26 19:39:04;;;;;;;17.63;6.00;;;14.50;99.90;;;;;;7383379;19;20006;-78
2023/12/26 19:41:36;;;;;;;14.55;5.93;;;14.50;99.90;;;;;;7385981;19;20047;-77
2023/12/26 19:44:08;;;;;;;13.63;5.32;;;14.50;99.90;;;;;;7403917;19;20035;-78
2023/12/26 19:46:39;;;;;;;9.38;4.95;;;14.50;99.90;;;;;;7383111;19;20006;-77
2023/12/26 19:49:09;;;;;;;15.18;5.70;;;14.50;99.90;;;;;;7384346;19;20036;-77
2023/12/26 19:51:41;;;;;;;18.13;6.32;;;14.50;99.90;;;;;;7359789;19;20011;-78
2023/12/26 19:54:10;;;;;;;23.45;6.22;;;14.50;99.90;;;;;;7403044;19;20412;-75
2023/12/26 19:56:44;;;;;;;16.05;5.97;;;14.60;99.90;;;;;;7385623;19;20007;-77
2023/12/26 19:59:13;;;;;;;30.95;6.43;;;14.50;99.90;;;;;;7404338;19;20263;-76
2023/12/26 20:01:44;;;;;;;15.45;6.18;;;14.60;99.90;;;;;;7384070;19;20271;-74
2023/12/26 20:04:13;;;;;;;20.90;6.07;;;14.50;99.90;;;;;;7384693;19;20006;-76
2023/12/26 20:06:45;;;;;;;20.95;6.00;;;14.50;99.90;;;;;;7385127;19;20012;-76
2023/12/26 20:09:15;;;;;;;24.67;6.40;;;14.60;99.90;;;;;;7385258;19;20015;-75
2023/12/26 20:11:48;;;;;;;24.50;6.00;;;14.50;99.90;;;;;;7385756;19;20003;-75
2023/12/26 20:14:17;;;;;;;20.23;6.22;;;14.60;99.90;;;;;;7405690;19;20006;-76
2023/12/26 20:16:48;;;;;;;24.85;7.05;;;14.60;99.90;;;;;;7409090;19;20019;-75
2023/12/26 20:19:17;;;;;;;26.75;6.60;;;14.60;99.90;;;;;;7386957;19;20103;-76
2023/12/26 20:21:46;;;;;;;18.30;6.20;;;14.60;99.90;;;;;;7386641;19;20329;-75
2023/12/26 20:24:16;;;;;;;30.55;6.15;;;14.60;99.90;;;;;;7387730;19;20010;-75
2023/12/26 20:26:52;;;;;;;22.45;6.45;;;14.60;99.90;;;;;;7382662;19;20034;-75
2023/12/26 20:29:22;;;;;;;24.85;7.00;;;14.60;99.90;;;;;;7391665;19;20013;-75
2023/12/26 20:31:53;;;;;;;16.40;7.18;;;14.60;99.90;;;;;;7406554;19;20014;-76
2023/12/26 20:34:24;;;;;;;26.02;7.53;;;14.60;99.90;;;;;;7382360;19;20015;-74
2023/12/26 20:36:54;;;;;;;30.27;7.78;;;14.50;99.90;;;;;;7382243;19;20027;-75
2023/12/26 20:39:23;;;;;;;16.05;6.78;;;14.60;99.90;;;;;;7382543;19;20010;-75
2023/12/26 20:41:56;;;;;;;25.00;7.65;;;14.60;99.90;;;;;;7382707;19;20023;-76
2023/12/26 20:44:25;;;;;;;23.13;8.55;;;14.60;99.90;;;;;;7383814;19;20014;-74
2023/12/26 20:46:53;;;;;;;34.00;8.80;;;14.60;99.90;;;;;;7404820;19;20014;-74
2023/12/26 20:49:22;;;;;;;23.30;8.52;;;14.60;99.90;;;;;;7382232;19;20017;-75
2023/12/26 20:51:51;;;;;;;32.90;9.32;;;14.60;99.90;;;;;;7383589;19;20006;-75
2023/12/26 20:54:19;;;;;;;32.00;9.13;;;14.60;99.90;;;;;;7383670;19;20030;-75
2023/12/26 20:56:50;;;;;;;24.55;9.40;;;14.60;99.90;;;;;;7384277;19;20381;-76
2023/12/26 20:59:23;;;;;;;22.70;8.13;;;14.60;99.90;;;;;;7407295;19;20110;-75
2023/12/26 21:01:51;;;;;;;27.70;8.85;;;14.60;99.90;;;;;;7384512;19;20300;-75
2023/12/26 21:04:21;;;;;;;34.58;8.95;;;14.60;99.90;;;;;;7383228;19;20084;-75
2023/12/26 21:06:50;;;;;;;29.17;7.88;;;14.40;99.90;;;;;;7382014;19;20058;-75
2023/12/26 21:09:18;;;;;;;34.45;9.30;;;14.30;99.90;;;;;;7384102;19;20010;-76
2023/12/26 21:11:47;;;;;;;32.60;8.85;;;14.40;99.90;;;;;;7383545;19;20018;-77
2023/12/26 21:14:18;;;;;;;34.22;8.52;;;14.40;99.90;;;;;;7405484;19;20021;-77
2023/12/26 21:16:51;;;;;;;33.65;8.02;;;14.40;99.90;;;;;;7383231;19;20007;-76
2023/12/26 21:19:22;;;;;;;24.38;7.68;;;14.40;99.90;;;;;;7383016;19;20285;-77
2023/12/26 21:21:48;;;;;;;22.92;7.57;;;14.40;99.90;;;;;;7383858;19;20078;-75
2023/12/26 21:24:17;;;;;;;22.83;8.23;;;14.40;99.90;;;;;;7382687;19;20400;-77
2023/12/26 21:26:49;;;;;;;25.63;7.75;;;14.40;99.90;;;;;;7381752;19;20439;-75
2023/12/26 21:29:18;;;;;;;22.92;8.25;;;14.40;99.90;;;;;;7405918;19;20019;-77
2023/12/26 21:31:49;;;;;;;24.70;8.48;;;14.50;99.90;;;;;;7383138;19;20021;-75
2023/12/26 21:34:18;;;;;;;21.15;7.28;;;14.50;99.90;;;;;;7382256;19;20011;-77
2023/12/26 21:36:47;;;;;;;29.15;7.90;;;14.50;99.90;;;;;;7381535;19;20092;-77
2023/12/26 21:39:18;;;;;;;31.98;8.40;;;14.50;99.90;;;;;;7382769;19;20023;-76
2023/12/26 21:41:46;;;;;;;28.00;8.25;;;14.50;99.90;;;;;;7381772;19;20357;-76
2023/12/26 21:44:15;;;;;;;27.17;7.35;;;14.50;99.90;;;;;;7403110;19;20014;-77
2023/12/26 21:46:53;;;;;;;28.88;7.47;;;14.50;99.90;;;;;;7382691;19;20022;-78
2023/12/26 21:49:22;;;;;;;26.30;7.95;;;14.50;99.90;;;;;;7383300;19;20357;-77
2023/12/26 21:51:51;;;;;;;20.45;7.45;;;14.50;99.90;;;;;;7381373;19;20003;-76
2023/12/26 21:54:19;;;;;;;22.50;7.50;;;14.40;99.90;;;;;;7381357;19;20014;-76
2023/12/26 21:56:50;;;;;;;21.42;7.60;;;14.40;99.90;;;;;;7382265;19;20014;-77
2023/12/26 21:59:19;;;;;;;32.57;7.57;;;14.40;99.90;;;;;;7406335;19;20014;-76
2023/12/26 22:01:50;;;;;;;22.13;7.93;;;14.40;99.90;;;;;;7385283;19;20007;-76
2023/12/26 22:04:19;;;;;;;24.35;7.65;;;14.40;99.90;;;;;;7389929;19;20026;-75
2023/12/26 22:06:49;;;;;;;19.90;7.45;;;14.50;99.90;;;;;;7389440;19;20010;-76
2023/12/26 22:09:18;;;;;;;18.05;7.88;;;14.50;99.90;;;;;;7388283;19;20013;-77
2023/12/26 22:11:49;;;;;;;19.00;7.60;;;14.50;99.90;;;;;;7389874;19;20018;-77
2023/12/26 22:14:19;;;;;;;23.88;8.18;;;14.50;99.90;;;;;;7411739;19;20022;-76
2023/12/26 22:16:51;;;;;;;19.30;7.00;;;14.50;99.90;;;;;;7389496;19;20387;-77
2023/12/26 22:19:20;;;;;;;23.75;7.25;;;14.60;99.90;;;;;;7394513;19;20007;-77
2023/12/26 22:21:49;;;;;;;21.40;7.90;;;14.50;99.90;;;;;;7395432;19;20078;-76
2023/12/26 22:24:17;;;;;;;20.23;7.38;;;14.50;99.90;;;;;;7393812;19;20007;-77
2023/12/26 22:26:48;;;;;;;19.60;7.53;;;14.50;99.90;;;;;;7392977;19;20011;-76
2023/12/26 22:29:16;;;;;;;21.40;8.05;;;14.50;99.90;;;;;;7414477;19;20031;-75
2023/12/26 22:31:45;;;;;;;25.95;8.90;;;14.50;99.90;;;;;;7388897;19;20024;-75
2023/12/26 22:34:16;;;;;;;28.13;7.45;;;14.50;99.90;;;;;;7388928;19;20070;-78
2023/12/26 22:36:45;;;;;;;;;;;14.50;99.90;;;;;;7389595;19;20035;-76
2023/12/26 22:39:15;;;;;;;32.70;8.07;;;14.50;99.90;;;;;;7388011;19;19918;-77
2023/12/26 22:41:43;;;;;;;17.88;7.18;;;14.40;99.90;;;;;;7387771;19;20028;-76
2023/12/26 22:44:14;;;;;;;21.73;7.90;;;14.40;99.90;;;;;;7410398;19;20078;-76
2023/12/26 22:46:43;;;;;;;19.42;7.68;;;14.40;99.90;;;;;;7386970;19;20013;-76
2023/12/26 22:49:12;;;;;;;20.60;7.45;;;14.40;99.90;;;;;;7387305;19;20306;-77
2023/12/26 22:51:43;;;;;;;20.60;7.65;;;14.40;99.90;;;;;;7388540;19;20039;-77
2023/12/26 22:54:12;;;;;;;18.73;7.43;;;14.40;99.90;;;;;;7388177;19;20046;-76
2023/12/26 22:56:42;;;;;;;22.05;7.95;;;14.40;99.90;;;;;;7389534;19;20011;-76
2023/12/26 22:59:11;;;;;;;28.45;7.60;;;14.50;99.90;;;;;;7410371;19;20010;-77
2023/12/26 23:01:41;;;;;;;23.63;8.07;;;14.40;99.90;;;;;;7387980;19;20067;-76
2023/12/26 23:04:09;;;;;;;19.02;7.43;;;14.40;99.90;;;;;;7388513;19;20265;-76
2023/12/26 23:06:44;;;;;;;23.10;7.75;;;14.40;99.90;;;;;;7387701;19;20007;-76
2023/12/26 23:09:14;;;;;;;27.08;8.90;;;14.40;99.90;;;;;;7387478;19;20461;-75
2023/12/26 23:11:43;;;;;;;22.05;7.78;;;14.50;99.90;;;;;;7387939;19;20020;-76
2023/12/26 23:14:15;;;;;;;20.30;7.60;;;14.50;99.90;;;;;;7409000;19;20027;-76
2023/12/26 23:16:46;;;;;;;15.80;7.13;;;14.50;99.90;;;;;;7386467;19;20002;-76
2023/12/26 23:19:15;;;;;;;27.55;7.50;;;14.40;99.90;;;;;;7381045;19;20349;-74
2023/12/26 23:21:46;;;;;;;24.25;7.18;;;14.50;99.90;;;;;;7384214;19;20007;-75
2023/12/26 23:24:15;;;;;;;;;;;14.50;99.90;;;;;;7380717;19;20034;-74
2023/12/26 23:26:44;;;;;;;16.17;7.20;;;14.30;99.90;;;;;;7380770;19;19952;-75
2023/12/26 23:29:12;;;;;;;22.77;7.75;;;14.30;99.90;;;;;;7402598;19;20019;-75
2023/12/26 23:31:41;;;;;;;30.38;8.13;;;14.30;99.90;;;;;;7380998;19;20066;-76
2023/12/26 23:34:10;;;;;;;16.83;7.03;;;14.40;99.90;;;;;;7380892;19;20337;-77
2023/12/26 23:36:38;;;;;;;23.90;7.18;;;14.40;99.90;;;;;;7381069;19;20098;-76
2023/12/26 23:39:12;;;;;;;28.13;7.50;;;14.30;99.90;;;;;;7381626;19;20011;-75
2023/12/26 23:41:41;;;;;;;25.85;7.20;;;14.30;99.90;;;;;;7403006;19;20014;-74
2023/12/26 23:44:10;;;;;;;16.83;7.20;;;14.30;99.90;;;;;;7380423;19;20382;-74
2023/12/26 23:46:39;;;;;;;23.58;7.75;;;14.30;99.90;;;;;;7380217;19;20006;-75
2023/12/26 23:49:08;;;;;;;16.08;7.85;;;14.20;99.90;;;;;;7380723;19;20006;-74
2023/12/26 23:51:37;;;;;;;32.17;8.32;;;14.20;99.90;;;;;;7380883;19;20013;-73
2023/12/26 23:54:05;;;;;;;15.95;7.10;;;14.20;99.90;;;;;;7378649;19;20351;-74
2023/12/26 23:56:37;;;;;;;18.52;7.20;;;14.20;99.90;;;;;;7401464;19;20006;-74
2023/12/26 23:59:05;;;;;;;22.42;6.75;;;14.20;99.90;;;;;;7380074;19;20024;-74
